createdAt,value
2022-08-12T00:01:13.428Z,19.20
2022-08-12T00:04:00.555Z,19.20
2022-08-12T00:06:47.626Z,19.10
2022-08-12T00:09:33.229Z,19.10
2022-08-12T00:12:19.780Z,19.10
2022-08-12T00:15:05.684Z,19.10
2022-08-12T00:17:52.260Z,19.10
2022-08-12T00:20:39.249Z,18.90
2022-08-12T00:23:25.460Z,18.90
2022-08-12T00:26:22.744Z,18.90
2022-08-12T00:29:12.680Z,18.90
2022-08-12T00:31:58.267Z,18.90
2022-08-12T00:34:48.540Z,18.80
2022-08-12T00:37:37.110Z,18.80
2022-08-12T00:40:25.068Z,18.70
2022-08-12T00:42:54.651Z,18.70
2022-08-12T00:45:22.755Z,18.70
2022-08-12T00:47:55.045Z,18.60
2022-08-12T00:50:26.556Z,18.60
2022-08-12T00:52:56.073Z,18.60
2022-08-12T00:55:24.616Z,18.60
2022-08-12T00:57:53.052Z,18.60
2022-08-12T01:00:25.562Z,18.50
2022-08-12T01:02:58.692Z,18.50
2022-08-12T01:05:45.542Z,18.50
2022-08-12T01:08:43.951Z,18.50
2022-08-12T01:11:32.703Z,18.50
2022-08-12T01:14:03.231Z,18.40
2022-08-12T01:16:31.892Z,18.40
2022-08-12T01:19:01.242Z,18.40
2022-08-12T01:22:20.463Z,18.40
2022-08-12T01:24:57.139Z,18.30
2022-08-12T01:27:27.549Z,18.30
2022-08-12T01:29:58.906Z,18.30
2022-08-12T01:32:31.751Z,18.30
2022-08-12T01:35:07.832Z,18.30
2022-08-12T01:37:46.554Z,18.20
2022-08-12T01:40:34.201Z,18.20
2022-08-12T01:43:14.551Z,18.20
2022-08-12T01:45:57.460Z,18.10
2022-08-12T01:48:43.575Z,18.10
2022-08-12T01:52:21.550Z,18.10
2022-08-12T01:54:19.414Z,18.10
2022-08-12T01:56:57.957Z,18.10
2022-08-12T01:59:50.140Z,18.00
2022-08-12T02:02:27.061Z,18.00
2022-08-12T02:05:33.190Z,18.00
2022-08-12T02:08:52.262Z,18.00
2022-08-12T02:11:26.263Z,18.00
2022-08-12T02:14:26.061Z,17.90
2022-08-12T02:17:54.720Z,17.90
2022-08-12T02:20:35.358Z,17.90
2022-08-12T02:23:26.839Z,17.90
2022-08-12T02:26:02.298Z,17.80
2022-08-12T02:28:31.782Z,17.80
2022-08-12T02:31:06.191Z,17.80
2022-08-12T02:33:37.613Z,17.80
2022-08-12T02:36:07.352Z,17.90
2022-08-12T02:38:37.564Z,17.80
2022-08-12T02:41:08.209Z,17.80
2022-08-12T02:43:47.139Z,17.80
2022-08-12T02:46:24.922Z,17.70
2022-08-12T02:48:59.079Z,17.60
2022-08-12T02:51:33.387Z,17.60
2022-08-12T02:54:06.202Z,17.60
2022-08-12T02:56:40.789Z,17.60
2022-08-12T02:59:13.578Z,17.50
2022-08-12T03:01:49.702Z,17.50
2022-08-12T03:04:27.252Z,17.40
2022-08-12T03:07:10.403Z,17.40
2022-08-12T03:10:04.558Z,17.40
2022-08-12T03:12:45.757Z,17.40
2022-08-12T03:15:22.115Z,17.40
2022-08-12T03:18:27.075Z,17.40
2022-08-12T03:20:46.325Z,17.40
2022-08-12T03:23:29.246Z,17.40
2022-08-12T03:26:01.535Z,17.30
2022-08-12T03:28:51.838Z,17.30
2022-08-12T03:31:23.223Z,17.20
2022-08-12T03:34:01.371Z,17.20
2022-08-12T03:36:35.179Z,17.20
2022-08-12T03:39:35.301Z,17.10
2022-08-12T03:42:35.721Z,17.10
2022-08-12T03:45:51.593Z,17.10
2022-08-12T03:48:39.165Z,17.10
2022-08-12T03:51:29.735Z,17.20
2022-08-12T03:54:16.071Z,17.10
2022-08-12T03:57:01.659Z,17.00
2022-08-12T03:59:47.555Z,17.00
2022-08-12T04:02:16.918Z,17.00
2022-08-12T04:04:47.341Z,17.00
2022-08-12T04:07:19.381Z,17.00
2022-08-12T04:09:48.517Z,16.90
2022-08-12T04:12:34.409Z,16.90
2022-08-12T04:15:04.938Z,16.90
2022-08-12T04:17:34.939Z,16.90
2022-08-12T04:20:03.214Z,16.90
2022-08-12T04:22:33.497Z,16.90
2022-08-12T04:25:02.433Z,17.00
2022-08-12T04:27:32.065Z,17.00
2022-08-12T04:30:30.376Z,17.00
2022-08-12T04:32:50.872Z,17.00
2022-08-12T04:35:19.298Z,17.00
2022-08-12T04:37:58.929Z,17.10
2022-08-12T04:40:32.282Z,17.10
2022-08-12T04:43:02.088Z,17.10
2022-08-12T04:45:32.543Z,17.20
2022-08-12T04:48:01.940Z,17.20
2022-08-12T04:50:35.766Z,17.30
2022-08-12T04:53:09.342Z,17.30
2022-08-12T04:55:40.160Z,17.40
2022-08-12T04:58:09.283Z,17.50
2022-08-12T05:00:38.886Z,17.50
2022-08-12T05:03:08.298Z,17.60
2022-08-12T05:05:40.616Z,17.70
2022-08-12T05:08:15.768Z,17.90
2022-08-12T05:10:46.271Z,18.00
2022-08-12T05:13:18.449Z,18.20
2022-08-12T05:16:00.263Z,18.60
2022-08-12T05:18:32.260Z,18.90
2022-08-12T05:21:00.961Z,19.40
2022-08-12T05:23:32.264Z,19.60
2022-08-12T05:26:01.480Z,19.70
2022-08-12T05:28:31.229Z,19.90
2022-08-12T05:31:01.689Z,19.90
2022-08-12T05:33:37.405Z,19.90
2022-08-12T05:36:08.592Z,19.90
2022-08-12T05:38:55.794Z,20.10
2022-08-12T05:41:25.166Z,20.20
2022-08-12T05:43:56.341Z,20.40
2022-08-12T05:46:26.897Z,20.50
2022-08-12T05:48:56.667Z,20.60
2022-08-12T05:51:40.591Z,20.70
2022-08-12T05:54:12.222Z,20.80
2022-08-12T05:56:41.969Z,20.90
2022-08-12T05:59:12.815Z,21.00
2022-08-12T06:02:11.378Z,21.10
2022-08-12T06:04:32.197Z,21.20
2022-08-12T06:07:01.831Z,21.20
2022-08-12T06:09:31.390Z,21.30
2022-08-12T06:12:05.495Z,21.40
2022-08-12T06:14:37.968Z,21.50
2022-08-12T06:17:09.455Z,21.50
2022-08-12T06:20:27.197Z,21.60
2022-08-12T06:22:26.686Z,21.70
2022-08-12T06:24:56.154Z,21.80
2022-08-12T06:27:24.219Z,21.90
2022-08-12T06:30:09.104Z,22.00
2022-08-12T06:32:51.593Z,22.10
2022-08-12T06:35:47.513Z,22.10
2022-08-12T06:38:19.684Z,22.20
2022-08-12T06:41:11.777Z,22.30
2022-08-12T06:44:06.055Z,22.20
2022-08-12T06:46:31.075Z,22.20
2022-08-12T06:49:00.173Z,22.20
2022-08-12T06:51:32.387Z,22.20
2022-08-12T06:54:02.201Z,22.20
2022-08-12T06:57:02.605Z,22.20
2022-08-12T06:59:21.996Z,22.20
2022-08-12T07:01:51.551Z,22.30
2022-08-12T07:04:38.518Z,22.30
2022-08-12T07:07:09.134Z,22.30
2022-08-12T07:10:04.088Z,22.30
2022-08-12T07:12:28.433Z,22.40
2022-08-12T07:14:57.920Z,22.40
2022-08-12T07:17:26.430Z,22.40
2022-08-12T07:19:57.997Z,22.50
2022-08-12T07:22:28.773Z,22.50
2022-08-12T07:25:10.803Z,22.50
2022-08-12T07:27:42.669Z,22.50
2022-08-12T07:30:12.310Z,22.50
2022-08-12T07:32:40.587Z,22.50
2022-08-12T07:35:09.775Z,22.50
2022-08-12T07:37:42.710Z,22.60
2022-08-12T07:40:12.764Z,22.60
2022-08-12T07:42:44.265Z,22.70
2022-08-12T07:45:14.555Z,22.70
2022-08-12T07:47:43.792Z,22.80
2022-08-12T07:50:13.714Z,22.90
2022-08-12T07:52:45.264Z,22.90
2022-08-12T07:55:15.092Z,23.00
2022-08-12T07:57:59.210Z,23.00
2022-08-12T08:00:29.965Z,23.00
2022-08-12T08:02:58.854Z,23.00
2022-08-12T08:05:31.077Z,23.10
2022-08-12T08:08:02.295Z,23.30
2022-08-12T08:10:31.402Z,23.40
2022-08-12T08:13:04.971Z,23.50
2022-08-12T08:16:01.174Z,23.60
2022-08-12T08:18:25.963Z,23.60
2022-08-12T08:20:56.791Z,23.70
2022-08-12T08:23:56.495Z,23.80
2022-08-12T08:26:27.353Z,23.80
2022-08-12T08:28:56.960Z,23.80
2022-08-12T08:31:25.100Z,23.90
2022-08-12T08:34:05.250Z,24.10
2022-08-12T08:36:43.984Z,24.20
2022-08-12T08:39:17.907Z,24.30
2022-08-12T08:42:15.530Z,24.30
2022-08-12T08:44:49.830Z,24.30
2022-08-12T08:47:26.107Z,24.40
2022-08-12T08:49:57.395Z,24.50
2022-08-12T08:52:40.370Z,24.60
2022-08-12T08:55:18.645Z,24.60
2022-08-12T08:57:52.933Z,24.60
2022-08-12T09:00:23.436Z,24.60
2022-08-12T09:02:59.044Z,24.60
2022-08-12T09:06:01.518Z,24.60
2022-08-12T09:08:26.650Z,24.70
2022-08-12T09:16:40.921Z,24.80
2022-08-12T09:19:27.368Z,24.90
2022-08-12T09:21:57.254Z,25.00
2022-08-12T09:24:28.449Z,25.10
2022-08-12T09:30:11.379Z,25.20
2022-08-12T09:33:05.311Z,25.20
2022-08-12T09:35:31.439Z,25.30
2022-08-12T09:38:01.318Z,25.30
2022-08-12T09:41:03.884Z,25.30
2022-08-12T09:43:38.106Z,25.30
2022-08-12T09:46:25.259Z,25.40
2022-08-12T09:48:56.159Z,25.40
2022-08-12T09:51:37.406Z,25.60
2022-08-12T09:54:33.150Z,25.60
2022-08-12T09:58:08.209Z,25.70
2022-08-12T10:00:16.741Z,25.70
2022-08-12T10:02:45.377Z,25.70
2022-08-12T10:05:21.706Z,25.60
2022-08-12T10:07:49.820Z,25.70
2022-08-12T10:10:24.920Z,25.70
2022-08-12T10:13:34.397Z,25.80
2022-08-12T10:16:05.022Z,25.70
2022-08-12T10:18:52.101Z,25.70
2022-08-12T10:21:36.316Z,25.70
2022-08-12T10:24:08.840Z,25.90
2022-08-12T10:26:56.887Z,26.00
2022-08-12T10:30:03.473Z,26.00
2022-08-12T10:32:44.473Z,26.10
2022-08-12T10:35:18.230Z,26.10
2022-08-12T10:38:36.604Z,26.10
2022-08-12T10:40:57.525Z,26.20
2022-08-12T10:43:54.087Z,26.20
2022-08-12T10:46:31.333Z,26.10
2022-08-12T10:49:06.229Z,26.20
2022-08-12T10:52:33.269Z,26.20
2022-08-12T10:54:43.617Z,26.20
2022-08-12T10:57:18.456Z,26.20
2022-08-12T11:00:31.020Z,26.20
2022-08-12T11:04:31.478Z,26.30
2022-08-12T11:07:05.723Z,26.30
2022-08-12T11:08:39.275Z,26.40
2022-08-12T11:11:17.521Z,26.40
2022-08-12T11:13:48.872Z,26.50
2022-08-12T11:16:23.157Z,26.50
2022-08-12T11:18:55.611Z,26.50
2022-08-12T11:21:56.437Z,26.60
2022-08-12T11:24:30.941Z,26.70
2022-08-12T11:27:07.657Z,26.70
2022-08-12T11:30:00.547Z,26.80
2022-08-12T11:32:26.051Z,26.80
2022-08-12T11:34:55.110Z,26.90
2022-08-12T11:37:26.395Z,26.90
2022-08-12T11:42:37.420Z,27.00
2022-08-12T11:45:10.375Z,27.10
2022-08-12T11:47:40.217Z,27.30
2022-08-12T11:50:11.911Z,27.20
2022-08-12T11:53:58.282Z,27.30
2022-08-12T11:55:36.418Z,27.20
2022-08-12T11:59:35.983Z,27.30
2022-08-12T12:03:54.738Z,27.60
2022-08-12T12:06:23.046Z,27.40
2022-08-12T12:08:53.598Z,27.40
2022-08-12T12:11:23.216Z,27.40
2022-08-12T12:14:06.313Z,27.20
2022-08-12T12:16:40.079Z,27.10
2022-08-12T12:19:10.629Z,27.00
2022-08-12T12:21:48.652Z,27.00
2022-08-12T12:24:22.032Z,27.00
2022-08-12T12:27:00.295Z,27.10
2022-08-12T12:30:14.021Z,27.30
2022-08-12T12:32:29.314Z,27.40
2022-08-12T12:35:13.823Z,27.60
2022-08-12T12:38:04.463Z,27.60
2022-08-12T12:40:39.739Z,27.70
2022-08-12T12:43:09.088Z,27.70
2022-08-12T12:45:44.293Z,27.40
2022-08-12T12:48:17.681Z,27.30
2022-08-12T12:51:09.337Z,27.20
2022-08-12T12:54:07.489Z,27.20
2022-08-12T12:56:34.263Z,27.20
2022-08-12T12:59:05.896Z,27.20
2022-08-12T13:01:42.136Z,27.30
2022-08-12T13:04:13.598Z,27.40
2022-08-12T13:06:42.862Z,27.50
2022-08-12T13:09:13.505Z,27.80
2022-08-12T13:11:44.403Z,28.00
2022-08-12T13:14:28.185Z,28.40
2022-08-12T13:17:01.144Z,28.60
2022-08-12T13:19:37.881Z,28.70
2022-08-12T13:22:20.274Z,28.70
2022-08-12T13:24:52.090Z,28.60
2022-08-12T13:27:34.669Z,28.40
2022-08-12T13:30:11.459Z,28.40
2022-08-12T13:32:43.566Z,28.20
2022-08-12T13:35:33.598Z,28.00
2022-08-12T13:38:13.721Z,27.80
2022-08-12T13:40:41.930Z,27.60
2022-08-12T13:43:15.440Z,27.60
2022-08-12T13:46:03.806Z,27.40
2022-08-12T13:48:33.193Z,27.30
2022-08-12T13:51:01.690Z,27.30
2022-08-12T13:53:54.765Z,27.40
2022-08-12T13:56:24.758Z,27.70
2022-08-12T13:58:59.468Z,27.80
2022-08-12T14:01:29.698Z,28.20
2022-08-12T14:04:04.347Z,28.50
2022-08-12T14:06:34.011Z,28.90
2022-08-12T14:09:02.184Z,29.10
2022-08-12T14:11:51.290Z,29.10
2022-08-12T14:14:31.644Z,29.00
2022-08-12T14:17:09.804Z,28.60
2022-08-12T14:20:01.025Z,28.40
2022-08-12T14:22:31.647Z,28.00
2022-08-12T14:25:01.290Z,27.80
2022-08-12T14:28:04.234Z,27.70
2022-08-12T14:30:28.932Z,27.50
2022-08-12T14:32:58.435Z,27.40
2022-08-12T14:35:28.033Z,27.40
2022-08-12T14:38:02.077Z,27.20
2022-08-12T14:40:31.251Z,27.10
2022-08-12T14:43:00.262Z,27.10
2022-08-12T14:45:44.253Z,27.10
2022-08-12T14:48:18.385Z,27.10
2022-08-12T14:51:09.544Z,27.10
2022-08-12T14:59:57.093Z,27.10
2022-08-12T15:02:21.427Z,27.00
2022-08-12T15:04:58.721Z,27.00
2022-08-12T15:07:33.705Z,27.10
2022-08-12T15:10:31.368Z,27.10
2022-08-12T15:13:07.274Z,27.10
2022-08-12T15:15:43.755Z,27.00
2022-08-12T15:18:21.248Z,27.20
2022-08-12T15:20:51.724Z,27.10
2022-08-12T15:23:22.883Z,27.10
2022-08-12T15:26:02.729Z,27.10
2022-08-12T15:28:35.501Z,27.00
2022-08-12T15:31:09.543Z,27.00
2022-08-12T15:33:55.201Z,27.00
2022-08-12T15:36:40.797Z,27.00
2022-08-12T15:39:16.870Z,26.90
2022-08-12T15:41:49.049Z,26.90
2022-08-12T15:44:42.303Z,27.00
2022-08-12T15:47:09.087Z,27.00
2022-08-12T15:49:54.141Z,26.90
2022-08-12T15:52:28.584Z,26.90
2022-08-12T15:55:06.125Z,26.80
2022-08-12T15:57:50.412Z,26.80
2022-08-12T16:00:32.791Z,26.80
2022-08-12T16:03:08.388Z,26.80
2022-08-12T16:06:12.196Z,26.70
2022-08-12T16:08:39.433Z,26.70
2022-08-12T16:11:15.519Z,26.70
2022-08-12T16:13:44.615Z,26.70
2022-08-12T16:16:23.811Z,26.70
2022-08-12T16:18:58.050Z,26.60
2022-08-12T16:21:51.990Z,26.60
2022-08-12T16:24:18.527Z,26.60
2022-08-12T16:26:51.409Z,26.60
2022-08-12T16:29:26.440Z,26.50
2022-08-12T16:31:57.323Z,26.50
2022-08-12T16:34:54.454Z,26.40
2022-08-12T16:37:15.964Z,26.40
2022-08-12T16:40:00.967Z,26.40
2022-08-12T16:42:32.051Z,26.40
2022-08-12T16:45:02.559Z,26.40
2022-08-12T16:47:58.775Z,26.30
2022-08-12T16:50:21.692Z,26.30
2022-08-12T16:52:59.808Z,26.30
2022-08-12T16:55:42.234Z,26.30
2022-08-12T16:58:27.867Z,26.30
2022-08-12T17:00:57.030Z,26.30
2022-08-12T17:03:28.767Z,26.30
2022-08-12T17:05:57.376Z,26.40
2022-08-12T17:08:28.949Z,26.40
2022-08-12T17:10:57.620Z,26.40
2022-08-12T17:13:27.146Z,26.30
2022-08-12T17:16:05.186Z,26.10
2022-08-12T17:18:45.500Z,26.10
2022-08-12T17:21:41.832Z,25.90
2022-08-12T17:24:22.517Z,26.00
2022-08-12T17:27:00.208Z,26.00
2022-08-12T17:30:00.807Z,25.90
2022-08-12T17:32:22.170Z,25.90
2022-08-12T17:35:22.849Z,25.80
2022-08-12T17:38:02.069Z,25.80
2022-08-12T17:40:35.904Z,25.80
2022-08-12T17:43:54.683Z,25.70
2022-08-12T17:46:04.083Z,25.60
2022-08-12T17:48:38.661Z,25.60
2022-08-12T17:51:15.481Z,25.60
2022-08-12T17:54:11.847Z,25.60
2022-08-12T17:56:37.788Z,25.50
2022-08-12T17:59:09.710Z,25.50
2022-08-12T18:01:45.669Z,25.40
2022-08-12T18:04:21.595Z,25.40
2022-08-12T18:06:52.386Z,25.30
2022-08-12T18:09:24.281Z,25.30
2022-08-12T18:12:13.353Z,25.20
2022-08-12T18:14:47.477Z,25.30
2022-08-12T18:17:21.386Z,25.20
2022-08-12T18:20:06.588Z,25.10
2022-08-12T18:22:40.850Z,25.10
2022-08-12T18:26:12.437Z,25.10
2022-08-12T18:28:16.835Z,25.00
2022-08-12T18:30:53.272Z,24.90
2022-08-12T18:33:25.610Z,24.90
2022-08-12T18:35:57.114Z,24.80
2022-08-12T18:38:27.835Z,24.60
2022-08-12T18:41:21.569Z,24.60
2022-08-12T18:43:59.862Z,24.50
2022-08-12T18:46:37.470Z,24.40
2022-08-12T18:49:18.906Z,24.30
2022-08-12T18:51:55.616Z,24.20
2022-08-12T18:54:35.631Z,24.20
2022-08-12T18:57:15.491Z,24.30
2022-08-12T18:59:59.923Z,24.20
2022-08-12T19:02:36.071Z,24.10
2022-08-12T19:05:10.007Z,24.00
2022-08-12T19:07:58.051Z,23.90
2022-08-12T19:10:31.950Z,23.80
2022-08-12T19:13:23.554Z,23.80
2022-08-12T19:15:54.764Z,23.80
2022-08-12T19:18:29.798Z,23.70
2022-08-12T19:21:11.742Z,23.60
2022-08-12T19:23:43.727Z,23.60
2022-08-12T19:26:13.218Z,23.50
2022-08-12T19:28:42.852Z,23.40
2022-08-12T19:31:44.724Z,23.30
2022-08-12T19:34:56.384Z,23.20
2022-08-12T19:37:27.393Z,23.10
2022-08-12T19:40:10.278Z,23.10
2022-08-12T19:42:53.339Z,23.10
2022-08-12T19:45:22.444Z,23.00
2022-08-12T19:47:50.587Z,23.00
2022-08-12T19:50:20.039Z,23.00
2022-08-12T19:52:51.168Z,22.90
2022-08-12T19:55:22.730Z,22.90
2022-08-12T19:58:02.621Z,22.90
2022-08-12T20:00:34.489Z,22.80
2022-08-12T20:03:05.313Z,22.80
2022-08-12T20:06:06.638Z,22.70
2022-08-12T20:08:34.194Z,22.70
2022-08-12T20:12:13.460Z,22.70
2022-08-12T20:14:00.284Z,22.70
2022-08-12T20:16:54.386Z,22.60
2022-08-12T20:19:53.196Z,22.60
2022-08-12T20:22:24.754Z,22.50
2022-08-12T20:25:08.955Z,22.50
2022-08-12T20:28:02.824Z,22.50
2022-08-12T20:30:37.907Z,22.40
2022-08-12T20:33:23.303Z,22.30
2022-08-12T20:36:13.969Z,22.40
2022-08-12T20:38:51.687Z,22.30
2022-08-12T20:41:22.082Z,22.50
2022-08-12T20:43:56.391Z,22.40
2022-08-12T20:46:31.447Z,22.40
2022-08-12T20:49:01.561Z,22.40
2022-08-12T20:51:54.963Z,22.40
2022-08-12T20:54:32.772Z,22.30
2022-08-12T20:57:09.724Z,22.30
2022-08-12T20:59:48.197Z,22.30
2022-08-12T21:02:18.738Z,22.30
2022-08-12T21:05:10.891Z,22.20
2022-08-12T21:07:47.717Z,22.20
2022-08-12T21:10:21.322Z,22.10
2022-08-12T21:12:56.198Z,22.00
2022-08-12T21:15:30.503Z,22.00
2022-08-12T21:18:27.384Z,22.00
2022-08-12T21:20:59.024Z,22.00
2022-08-12T21:23:31.123Z,21.90
2022-08-12T21:26:11.132Z,21.80
2022-08-12T21:28:42.194Z,21.80
2022-08-12T21:32:37.301Z,21.70
2022-08-12T21:34:18.752Z,21.60
2022-08-12T21:36:49.592Z,21.60
2022-08-12T21:39:22.018Z,21.60
2022-08-12T21:41:55.519Z,21.60
2022-08-12T21:45:43.826Z,21.50
2022-08-12T21:47:21.737Z,21.50
2022-08-12T21:50:02.557Z,21.50
2022-08-12T21:52:34.966Z,21.40
2022-08-12T21:55:08.119Z,21.40
2022-08-12T21:57:50.625Z,21.50
2022-08-12T22:00:31.850Z,21.50
2022-08-12T22:04:01.394Z,21.50
2022-08-12T22:06:31.093Z,21.50
2022-08-12T22:09:15.264Z,21.50
2022-08-12T22:11:56.692Z,21.50
2022-08-12T22:14:29.251Z,21.50
2022-08-12T22:17:01.422Z,21.50
2022-08-12T22:19:33.631Z,21.40
2022-08-12T22:22:05.122Z,21.50
2022-08-12T22:24:33.553Z,21.20
2022-08-12T22:27:18.374Z,21.20
2022-08-12T22:30:17.041Z,21.20
2022-08-12T22:32:51.287Z,21.20
2022-08-12T22:35:47.438Z,21.10
2022-08-12T22:38:29.373Z,21.00
2022-08-12T22:41:01.220Z,20.90
2022-08-12T22:43:59.599Z,20.90
2022-08-12T22:46:52.715Z,20.90
2022-08-12T22:49:36.807Z,20.80
2022-08-12T22:52:18.465Z,20.90
2022-08-12T22:55:02.542Z,20.90
2022-08-12T22:57:53.231Z,20.90
2022-08-12T23:00:24.760Z,20.80
2022-08-12T23:03:03.008Z,20.80
2022-08-12T23:06:05.446Z,20.70
2022-08-12T23:08:31.581Z,20.60
2022-08-12T23:11:00.301Z,20.50
2022-08-12T23:13:55.168Z,20.40
2022-08-12T23:16:31.679Z,20.40
2022-08-12T23:19:11.018Z,20.30
2022-08-12T23:22:05.712Z,20.30
2022-08-12T23:24:55.966Z,20.20
2022-08-12T23:27:51.526Z,20.20
2022-08-12T23:30:32.118Z,20.20
2022-08-12T23:33:19.819Z,20.20
2022-08-12T23:35:59.295Z,20.20
2022-08-12T23:38:34.454Z,20.20
2022-08-12T23:41:05.643Z,20.30
2022-08-12T23:43:39.330Z,20.30
2022-08-12T23:46:11.250Z,20.30
2022-08-12T23:48:40.910Z,20.30
2022-08-12T23:51:21.944Z,20.30
2022-08-12T23:53:56.228Z,20.30
2022-08-12T23:56:25.824Z,20.20
2022-08-12T23:58:55.346Z,20.20
